sensor_id;sensor_type;location;lat;lon;timestamp;P1;durP1;ratioP1;P2;durP2;ratioP2
3779;SDS011;1905;52.482;9.802;2022-09-04T00:02:02;4.27;;;2.00;;
3779;SDS011;1905;52.482;9.802;2022-09-04T00:04:40;2.63;;;2.43;;
3779;SDS011;1905;52.482;9.802;2022-09-04T00:07:15;2.80;;;2.60;;
3779;SDS011;1905;52.482;9.802;2022-09-04T00:09:49;2.67;;;2.10;;
3779;SDS011;1905;52.482;9.802;2022-09-04T00:12:28;3.60;;;2.93;;
3779;SDS011;1905;52.482;9.802;2022-09-04T00:15:00;2.50;;;2.30;;
3779;SDS011;1905;52.482;9.802;2022-09-04T00:17:36;2.80;;;2.57;;
3779;SDS011;1905;52.482;9.802;2022-09-04T00:20:09;2.07;;;1.90;;
3779;SDS011;1905;52.482;9.802;2022-09-04T00:22:44;4.07;;;2.40;;
3779;SDS011;1905;52.482;9.802;2022-09-04T00:25:21;5.90;;;3.00;;
3779;SDS011;1905;52.482;9.802;2022-09-04T00:27:58;3.33;;;2.10;;
3779;SDS011;1905;52.482;9.802;2022-09-04T00:30:30;3.27;;;2.97;;
3779;SDS011;1905;52.482;9.802;2022-09-04T00:33:03;3.60;;;2.67;;
3779;SDS011;1905;52.482;9.802;2022-09-04T00:35:37;2.87;;;2.33;;
3779;SDS011;1905;52.482;9.802;2022-09-04T00:38:10;2.40;;;2.30;;
3779;SDS011;1905;52.482;9.802;2022-09-04T00:40:43;2.43;;;2.23;;
3779;SDS011;1905;52.482;9.802;2022-09-04T00:43:25;3.07;;;2.80;;
3779;SDS011;1905;52.482;9.802;2022-09-04T00:46:10;3.60;;;2.30;;
3779;SDS011;1905;52.482;9.802;2022-09-04T00:49:04;2.50;;;2.30;;
3779;SDS011;1905;52.482;9.802;2022-09-04T00:51:51;4.40;;;2.70;;
3779;SDS011;1905;52.482;9.802;2022-09-04T00:54:30;6.37;;;2.37;;
3779;SDS011;1905;52.482;9.802;2022-09-04T00:57:23;3.63;;;2.47;;
3779;SDS011;1905;52.482;9.802;2022-09-04T01:00:10;2.67;;;2.47;;
3779;SDS011;1905;52.482;9.802;2022-09-04T01:02:54;3.63;;;2.17;;
3779;SDS011;1905;52.482;9.802;2022-09-04T01:05:40;3.87;;;2.80;;
3779;SDS011;1905;52.482;9.802;2022-09-04T01:08:27;2.70;;;2.50;;
3779;SDS011;1905;52.482;9.802;2022-09-04T01:11:08;3.50;;;2.07;;
3779;SDS011;1905;52.482;9.802;2022-09-04T01:13:41;3.90;;;2.70;;
3779;SDS011;1905;52.482;9.802;2022-09-04T01:16:14;4.13;;;2.30;;
3779;SDS011;1905;52.482;9.802;2022-09-04T01:18:53;2.70;;;2.50;;
3779;SDS011;1905;52.482;9.802;2022-09-04T01:24:37;3.03;;;2.83;;
3779;SDS011;1905;52.482;9.802;2022-09-04T01:27:17;2.30;;;2.20;;
3779;SDS011;1905;52.482;9.802;2022-09-04T01:29:52;2.90;;;2.37;;
3779;SDS011;1905;52.482;9.802;2022-09-04T01:32:29;2.80;;;2.60;;
3779;SDS011;1905;52.482;9.802;2022-09-04T01:35:02;3.17;;;2.33;;
3779;SDS011;1905;52.482;9.802;2022-09-04T01:37:42;2.10;;;2.00;;
3779;SDS011;1905;52.482;9.802;2022-09-04T01:40:22;2.77;;;2.23;;
3779;SDS011;1905;52.482;9.802;2022-09-04T01:43:03;2.80;;;2.60;;
3779;SDS011;1905;52.482;9.802;2022-09-04T01:45:41;3.33;;;2.57;;
3779;SDS011;1905;52.482;9.802;2022-09-04T01:48:19;2.93;;;2.67;;
3779;SDS011;1905;52.482;9.802;2022-09-04T01:50:53;4.87;;;2.43;;
3779;SDS011;1905;52.482;9.802;2022-09-04T01:53:27;2.70;;;2.50;;
3779;SDS011;1905;52.482;9.802;2022-09-04T01:56:03;2.60;;;2.40;;
3779;SDS011;1905;52.482;9.802;2022-09-04T01:58:41;2.70;;;2.50;;
3779;SDS011;1905;52.482;9.802;2022-09-04T02:01:14;2.50;;;2.30;;
3779;SDS011;1905;52.482;9.802;2022-09-04T02:03:50;4.80;;;2.87;;
3779;SDS011;1905;52.482;9.802;2022-09-04T02:06:25;2.90;;;2.50;;
3779;SDS011;1905;52.482;9.802;2022-09-04T02:09:02;3.50;;;3.13;;
3779;SDS011;1905;52.482;9.802;2022-09-04T02:11:37;3.43;;;2.83;;
3779;SDS011;1905;52.482;9.802;2022-09-04T02:14:26;3.73;;;3.37;;
3779;SDS011;1905;52.482;9.802;2022-09-04T02:17:07;2.63;;;2.40;;
3779;SDS011;1905;52.482;9.802;2022-09-04T02:19:41;3.43;;;2.87;;
3779;SDS011;1905;52.482;9.802;2022-09-04T02:22:23;2.33;;;2.10;;
3779;SDS011;1905;52.482;9.802;2022-09-04T02:24:59;3.37;;;2.53;;
3779;SDS011;1905;52.482;9.802;2022-09-04T02:27:34;3.77;;;2.43;;
3779;SDS011;1905;52.482;9.802;2022-09-04T02:30:12;2.67;;;2.47;;
3779;SDS011;1905;52.482;9.802;2022-09-04T02:32:44;3.73;;;2.40;;
3779;SDS011;1905;52.482;9.802;2022-09-04T02:35:20;3.00;;;2.50;;
3779;SDS011;1905;52.482;9.802;2022-09-04T02:37:58;2.47;;;2.27;;
3779;SDS011;1905;52.482;9.802;2022-09-04T02:40:36;4.53;;;2.97;;
3779;SDS011;1905;52.482;9.802;2022-09-04T02:46:20;2.87;;;2.43;;
3779;SDS011;1905;52.482;9.802;2022-09-04T02:48:55;5.60;;;2.80;;
3779;SDS011;1905;52.482;9.802;2022-09-04T02:51:38;2.73;;;2.50;;
3779;SDS011;1905;52.482;9.802;2022-09-04T02:54:18;6.25;;;2.60;;
3779;SDS011;1905;52.482;9.802;2022-09-04T02:56:57;4.40;;;2.20;;
3779;SDS011;1905;52.482;9.802;2022-09-04T02:59:38;2.87;;;2.67;;
3779;SDS011;1905;52.482;9.802;2022-09-04T03:02:18;2.13;;;2.03;;
3779;SDS011;1905;52.482;9.802;2022-09-04T03:04:51;2.67;;;2.43;;
3779;SDS011;1905;52.482;9.802;2022-09-04T03:07:27;9.33;;;2.43;;
3779;SDS011;1905;52.482;9.802;2022-09-04T03:09:59;2.77;;;2.60;;
3779;SDS011;1905;52.482;9.802;2022-09-04T03:12:36;2.70;;;2.40;;
3779;SDS011;1905;52.482;9.802;2022-09-04T03:15:12;3.33;;;3.00;;
3779;SDS011;1905;52.482;9.802;2022-09-04T03:17:50;3.65;;;2.40;;
3779;SDS011;1905;52.482;9.802;2022-09-04T03:20:25;2.37;;;2.17;;
3779;SDS011;1905;52.482;9.802;2022-09-04T03:22:56;2.55;;;2.35;;
3779;SDS011;1905;52.482;9.802;2022-09-04T03:25:34;2.67;;;2.47;;
3779;SDS011;1905;52.482;9.802;2022-09-04T03:28:16;3.67;;;2.30;;
3779;SDS011;1905;52.482;9.802;2022-09-04T03:30:50;2.87;;;2.50;;
3779;SDS011;1905;52.482;9.802;2022-09-04T03:33:23;3.20;;;2.90;;
3779;SDS011;1905;52.482;9.802;2022-09-04T03:35:58;3.90;;;2.90;;
3779;SDS011;1905;52.482;9.802;2022-09-04T03:38:30;2.77;;;2.57;;
3779;SDS011;1905;52.482;9.802;2022-09-04T03:41:06;3.23;;;2.93;;
3779;SDS011;1905;52.482;9.802;2022-09-04T03:43:46;3.30;;;2.93;;
3779;SDS011;1905;52.482;9.802;2022-09-04T03:46:29;3.20;;;2.50;;
3779;SDS011;1905;52.482;9.802;2022-09-04T03:49:08;3.17;;;2.40;;
3779;SDS011;1905;52.482;9.802;2022-09-04T03:51:52;3.73;;;2.73;;
3779;SDS011;1905;52.482;9.802;2022-09-04T03:54:31;3.30;;;2.67;;
3779;SDS011;1905;52.482;9.802;2022-09-04T03:57:08;3.07;;;2.57;;
3779;SDS011;1905;52.482;9.802;2022-09-04T03:59:49;3.60;;;2.80;;
3779;SDS011;1905;52.482;9.802;2022-09-04T04:02:43;2.90;;;2.70;;
3779;SDS011;1905;52.482;9.802;2022-09-04T04:05:21;5.47;;;2.87;;
3779;SDS011;1905;52.482;9.802;2022-09-04T04:07:59;3.63;;;2.97;;
3779;SDS011;1905;52.482;9.802;2022-09-04T04:10:37;7.97;;;3.15;;
3779;SDS011;1905;52.482;9.802;2022-09-04T04:13:20;4.87;;;2.53;;
3779;SDS011;1905;52.482;9.802;2022-09-04T04:16:02;2.93;;;2.37;;
3779;SDS011;1905;52.482;9.802;2022-09-04T04:18:51;2.83;;;2.63;;
3779;SDS011;1905;52.482;9.802;2022-09-04T04:21:36;3.30;;;2.60;;
3779;SDS011;1905;52.482;9.802;2022-09-04T04:24:22;2.97;;;2.77;;
3779;SDS011;1905;52.482;9.802;2022-09-04T04:27:07;3.30;;;3.00;;
3779;SDS011;1905;52.482;9.802;2022-09-04T04:29:52;3.03;;;2.80;;
3779;SDS011;1905;52.482;9.802;2022-09-04T04:32:33;3.10;;;2.90;;
3779;SDS011;1905;52.482;9.802;2022-09-04T04:35:16;2.70;;;2.50;;
3779;SDS011;1905;52.482;9.802;2022-09-04T04:37:58;3.00;;;2.70;;
3779;SDS011;1905;52.482;9.802;2022-09-04T04:40:42;2.77;;;2.57;;
3779;SDS011;1905;52.482;9.802;2022-09-04T04:43:21;3.00;;;2.77;;
3779;SDS011;1905;52.482;9.802;2022-09-04T04:45:58;3.00;;;2.80;;
3779;SDS011;1905;52.482;9.802;2022-09-04T04:48:47;4.93;;;2.50;;
3779;SDS011;1905;52.482;9.802;2022-09-04T04:51:32;3.40;;;3.10;;
3779;SDS011;1905;52.482;9.802;2022-09-04T04:57:06;3.87;;;3.10;;
3779;SDS011;1905;52.482;9.802;2022-09-04T04:59:45;2.87;;;2.57;;
3779;SDS011;1905;52.482;9.802;2022-09-04T05:02:21;3.90;;;3.00;;
3779;SDS011;1905;52.482;9.802;2022-09-04T05:04:53;3.67;;;2.50;;
3779;SDS011;1905;52.482;9.802;2022-09-04T05:07:28;3.63;;;2.93;;
3779;SDS011;1905;52.482;9.802;2022-09-04T05:10:06;3.10;;;2.90;;
3779;SDS011;1905;52.482;9.802;2022-09-04T05:12:47;3.20;;;2.90;;
3779;SDS011;1905;52.482;9.802;2022-09-04T05:15:22;4.90;;;2.73;;
3779;SDS011;1905;52.482;9.802;2022-09-04T05:17:54;7.57;;;3.47;;
3779;SDS011;1905;52.482;9.802;2022-09-04T05:20:28;3.97;;;3.03;;
3779;SDS011;1905;52.482;9.802;2022-09-04T05:23:10;3.63;;;3.33;;
3779;SDS011;1905;52.482;9.802;2022-09-04T05:25:52;5.90;;;3.07;;
3779;SDS011;1905;52.482;9.802;2022-09-04T05:28:28;3.97;;;2.70;;
3779;SDS011;1905;52.482;9.802;2022-09-04T05:31:03;4.13;;;2.50;;
3779;SDS011;1905;52.482;9.802;2022-09-04T05:33:41;2.90;;;2.67;;
3779;SDS011;1905;52.482;9.802;2022-09-04T05:36:17;2.87;;;2.63;;
3779;SDS011;1905;52.482;9.802;2022-09-04T05:38:55;3.47;;;3.17;;
3779;SDS011;1905;52.482;9.802;2022-09-04T05:41:34;3.20;;;2.90;;
3779;SDS011;1905;52.482;9.802;2022-09-04T05:44:09;5.63;;;2.73;;
3779;SDS011;1905;52.482;9.802;2022-09-04T05:46:56;3.57;;;3.10;;
3779;SDS011;1905;52.482;9.802;2022-09-04T05:49:37;3.83;;;3.50;;
3779;SDS011;1905;52.482;9.802;2022-09-04T05:52:21;4.70;;;3.00;;
3779;SDS011;1905;52.482;9.802;2022-09-04T05:58:32;4.38;;;3.05;;
3779;SDS011;1905;52.482;9.802;2022-09-04T06:01:18;3.33;;;2.90;;
3779;SDS011;1905;52.482;9.802;2022-09-04T06:04:05;3.00;;;2.80;;
3779;SDS011;1905;52.482;9.802;2022-09-04T06:06:52;5.20;;;2.70;;
3779;SDS011;1905;52.482;9.802;2022-09-04T06:09:26;3.63;;;3.33;;
3779;SDS011;1905;52.482;9.802;2022-09-04T06:12:15;4.23;;;3.83;;
3779;SDS011;1905;52.482;9.802;2022-09-04T06:14:57;4.28;;;3.53;;
3779;SDS011;1905;52.482;9.802;2022-09-04T06:17:45;5.37;;;3.57;;
3779;SDS011;1905;52.482;9.802;2022-09-04T06:20:31;3.43;;;3.03;;
3779;SDS011;1905;52.482;9.802;2022-09-04T06:23:12;4.00;;;3.60;;
3779;SDS011;1905;52.482;9.802;2022-09-04T06:25:59;5.23;;;3.80;;
3779;SDS011;1905;52.482;9.802;2022-09-04T06:28:45;5.03;;;4.53;;
3779;SDS011;1905;52.482;9.802;2022-09-04T06:31:32;6.03;;;3.70;;
3779;SDS011;1905;52.482;9.802;2022-09-04T06:34:19;4.63;;;3.20;;
3779;SDS011;1905;52.482;9.802;2022-09-04T06:36:55;6.77;;;3.77;;
3779;SDS011;1905;52.482;9.802;2022-09-04T06:39:38;5.50;;;4.10;;
3779;SDS011;1905;52.482;9.802;2022-09-04T06:42:21;5.50;;;3.85;;
3779;SDS011;1905;52.482;9.802;2022-09-04T06:45:06;7.10;;;3.73;;
3779;SDS011;1905;52.482;9.802;2022-09-04T06:47:48;4.37;;;3.67;;
3779;SDS011;1905;52.482;9.802;2022-09-04T06:50:29;5.88;;;4.40;;
3779;SDS011;1905;52.482;9.802;2022-09-04T06:53:05;4.53;;;3.60;;
3779;SDS011;1905;52.482;9.802;2022-09-04T06:55:46;4.47;;;4.00;;
3779;SDS011;1905;52.482;9.802;2022-09-04T06:58:40;6.25;;;4.03;;
3779;SDS011;1905;52.482;9.802;2022-09-04T07:01:15;12.60;;;3.97;;
3779;SDS011;1905;52.482;9.802;2022-09-04T07:03:51;6.43;;;4.30;;
3779;SDS011;1905;52.482;9.802;2022-09-04T07:06:46;6.03;;;3.97;;
3779;SDS011;1905;52.482;9.802;2022-09-04T07:09:20;7.27;;;3.97;;
3779;SDS011;1905;52.482;9.802;2022-09-04T07:11:58;5.27;;;4.40;;
3779;SDS011;1905;52.482;9.802;2022-09-04T07:14:44;4.20;;;3.80;;
3779;SDS011;1905;52.482;9.802;2022-09-04T07:17:41;5.30;;;4.20;;
3779;SDS011;1905;52.482;9.802;2022-09-04T07:20:28;8.20;;;4.43;;
3779;SDS011;1905;52.482;9.802;2022-09-04T07:25:48;4.77;;;4.30;;
3779;SDS011;1905;52.482;9.802;2022-09-04T07:28:38;5.20;;;4.23;;
3779;SDS011;1905;52.482;9.802;2022-09-04T07:31:14;4.72;;;4.38;;
3779;SDS011;1905;52.482;9.802;2022-09-04T07:33:48;4.47;;;3.90;;
3779;SDS011;1905;52.482;9.802;2022-09-04T07:36:24;6.17;;;4.50;;
3779;SDS011;1905;52.482;9.802;2022-09-04T07:39:02;6.63;;;3.80;;
3779;SDS011;1905;52.482;9.802;2022-09-04T07:41:40;5.60;;;4.17;;
3779;SDS011;1905;52.482;9.802;2022-09-04T07:44:13;4.43;;;4.03;;
3779;SDS011;1905;52.482;9.802;2022-09-04T07:46:48;4.90;;;3.97;;
3779;SDS011;1905;52.482;9.802;2022-09-04T07:49:26;5.10;;;4.60;;
3779;SDS011;1905;52.482;9.802;2022-09-04T07:52:02;5.50;;;4.57;;
3779;SDS011;1905;52.482;9.802;2022-09-04T07:54:45;5.17;;;3.57;;
3779;SDS011;1905;52.482;9.802;2022-09-04T07:57:33;9.10;;;4.40;;
3779;SDS011;1905;52.482;9.802;2022-09-04T08:00:28;6.63;;;4.70;;
3779;SDS011;1905;52.482;9.802;2022-09-04T08:03:11;5.17;;;3.83;;
3779;SDS011;1905;52.482;9.802;2022-09-04T08:05:51;7.50;;;4.40;;
3779;SDS011;1905;52.482;9.802;2022-09-04T08:08:29;4.20;;;3.80;;
3779;SDS011;1905;52.482;9.802;2022-09-04T08:11:29;5.37;;;4.87;;
3779;SDS011;1905;52.482;9.802;2022-09-04T08:17:16;8.93;;;4.60;;
3779;SDS011;1905;52.482;9.802;2022-09-04T08:19:54;6.40;;;4.97;;
3779;SDS011;1905;52.482;9.802;2022-09-04T08:22:32;6.00;;;5.10;;
3779;SDS011;1905;52.482;9.802;2022-09-04T08:25:21;6.67;;;4.93;;
3779;SDS011;1905;52.482;9.802;2022-09-04T08:27:57;4.60;;;4.20;;
3779;SDS011;1905;52.482;9.802;2022-09-04T08:30:35;7.73;;;4.53;;
3779;SDS011;1905;52.482;9.802;2022-09-04T08:33:13;8.70;;;4.80;;
3779;SDS011;1905;52.482;9.802;2022-09-04T08:35:51;6.10;;;5.50;;
3779;SDS011;1905;52.482;9.802;2022-09-04T08:38:30;4.83;;;4.33;;
3779;SDS011;1905;52.482;9.802;2022-09-04T08:56:33;6.47;;;5.50;;
3779;SDS011;1905;52.482;9.802;2022-09-04T08:59:12;4.60;;;4.07;;
3779;SDS011;1905;52.482;9.802;2022-09-04T09:02:14;8.60;;;4.60;;
3779;SDS011;1905;52.482;9.802;2022-09-04T09:05:16;4.63;;;4.27;;
3779;SDS011;1905;52.482;9.802;2022-09-04T09:08:05;8.40;;;4.80;;
3779;SDS011;1905;52.482;9.802;2022-09-04T09:14:01;6.30;;;4.43;;
3779;SDS011;1905;52.482;9.802;2022-09-04T09:16:46;7.50;;;4.83;;
3779;SDS011;1905;52.482;9.802;2022-09-04T09:19:34;5.17;;;4.00;;
3779;SDS011;1905;52.482;9.802;2022-09-04T09:22:15;4.80;;;4.37;;
3779;SDS011;1905;52.482;9.802;2022-09-04T09:25:15;6.70;;;4.60;;
3779;SDS011;1905;52.482;9.802;2022-09-04T09:30:49;4.27;;;3.93;;
3779;SDS011;1905;52.482;9.802;2022-09-04T09:34:06;9.00;;;4.67;;
3779;SDS011;1905;52.482;9.802;2022-09-04T09:37:10;5.93;;;4.60;;
3779;SDS011;1905;52.482;9.802;2022-09-04T09:39:59;5.63;;;4.70;;
3779;SDS011;1905;52.482;9.802;2022-09-04T09:42:51;4.60;;;4.03;;
3779;SDS011;1905;52.482;9.802;2022-09-04T09:45:43;4.60;;;4.20;;
3779;SDS011;1905;52.482;9.802;2022-09-04T09:48:29;6.03;;;4.20;;
3779;SDS011;1905;52.482;9.802;2022-09-04T09:51:37;6.43;;;4.10;;
3779;SDS011;1905;52.482;9.802;2022-09-04T09:54:28;6.20;;;5.13;;
3779;SDS011;1905;52.482;9.802;2022-09-04T09:57:25;5.37;;;3.80;;
3779;SDS011;1905;52.482;9.802;2022-09-04T10:00:12;5.50;;;4.43;;
3779;SDS011;1905;52.482;9.802;2022-09-04T10:02:47;4.40;;;4.00;;
3779;SDS011;1905;52.482;9.802;2022-09-04T10:08:57;5.13;;;4.60;;
3779;SDS011;1905;52.482;9.802;2022-09-04T10:15:10;5.28;;;4.38;;
3779;SDS011;1905;52.482;9.802;2022-09-04T10:18:07;4.70;;;4.30;;
3779;SDS011;1905;52.482;9.802;2022-09-04T10:20:58;6.83;;;4.10;;
3779;SDS011;1905;52.482;9.802;2022-09-04T10:24:02;4.70;;;3.80;;
3779;SDS011;1905;52.482;9.802;2022-09-04T10:27:14;5.93;;;4.70;;
3779;SDS011;1905;52.482;9.802;2022-09-04T10:30:23;6.03;;;4.43;;
3779;SDS011;1905;52.482;9.802;2022-09-04T10:33:02;5.10;;;4.50;;
3779;SDS011;1905;52.482;9.802;2022-09-04T10:35:44;6.43;;;4.23;;
3779;SDS011;1905;52.482;9.802;2022-09-04T10:38:32;5.10;;;4.00;;
3779;SDS011;1905;52.482;9.802;2022-09-04T10:41:31;6.67;;;4.00;;
3779;SDS011;1905;52.482;9.802;2022-09-04T10:44:18;8.80;;;4.60;;
3779;SDS011;1905;52.482;9.802;2022-09-04T10:47:08;10.43;;;4.73;;
3779;SDS011;1905;52.482;9.802;2022-09-04T10:49:58;5.03;;;4.60;;
3779;SDS011;1905;52.482;9.802;2022-09-04T10:52:45;10.60;;;4.90;;
3779;SDS011;1905;52.482;9.802;2022-09-04T10:55:31;6.10;;;4.37;;
3779;SDS011;1905;52.482;9.802;2022-09-04T10:58:19;6.93;;;4.03;;
3779;SDS011;1905;52.482;9.802;2022-09-04T11:01:04;5.83;;;4.20;;
3779;SDS011;1905;52.482;9.802;2022-09-04T11:03:58;4.63;;;3.97;;
3779;SDS011;1905;52.482;9.802;2022-09-04T11:09:44;5.37;;;4.87;;
3779;SDS011;1905;52.482;9.802;2022-09-04T11:12:27;4.05;;;3.70;;
3779;SDS011;1905;52.482;9.802;2022-09-04T11:15:18;5.70;;;4.67;;
3779;SDS011;1905;52.482;9.802;2022-09-04T11:18:02;6.70;;;4.30;;
3779;SDS011;1905;52.482;9.802;2022-09-04T11:20:58;4.87;;;4.37;;
3779;SDS011;1905;52.482;9.802;2022-09-04T11:27:08;4.87;;;3.67;;
3779;SDS011;1905;52.482;9.802;2022-09-04T11:29:58;5.77;;;4.70;;
3779;SDS011;1905;52.482;9.802;2022-09-04T11:32:37;4.47;;;4.07;;
3779;SDS011;1905;52.482;9.802;2022-09-04T11:35:32;5.43;;;4.23;;
3779;SDS011;1905;52.482;9.802;2022-09-04T11:41:46;5.93;;;4.40;;
3779;SDS011;1905;52.482;9.802;2022-09-04T11:50:38;4.37;;;3.97;;
3779;SDS011;1905;52.482;9.802;2022-09-04T11:53:34;4.93;;;4.53;;
3779;SDS011;1905;52.482;9.802;2022-09-04T11:56:37;4.60;;;3.73;;
3779;SDS011;1905;52.482;9.802;2022-09-04T11:59:31;4.80;;;4.17;;
3779;SDS011;1905;52.482;9.802;2022-09-04T12:02:37;6.73;;;4.60;;
3779;SDS011;1905;52.482;9.802;2022-09-04T12:05:26;4.68;;;4.28;;
3779;SDS011;1905;52.482;9.802;2022-09-04T12:08:14;6.50;;;4.60;;
3779;SDS011;1905;52.482;9.802;2022-09-04T12:10:59;5.13;;;4.73;;
3779;SDS011;1905;52.482;9.802;2022-09-04T12:13:51;6.33;;;4.10;;
3779;SDS011;1905;52.482;9.802;2022-09-04T12:17:00;6.07;;;4.23;;
3779;SDS011;1905;52.482;9.802;2022-09-04T12:19:47;5.90;;;5.50;;
3779;SDS011;1905;52.482;9.802;2022-09-04T12:28:51;8.50;;;4.30;;
3779;SDS011;1905;52.482;9.802;2022-09-04T12:31:41;4.87;;;4.20;;
3779;SDS011;1905;52.482;9.802;2022-09-04T12:34:35;5.00;;;4.37;;
3779;SDS011;1905;52.482;9.802;2022-09-04T12:37:24;9.10;;;4.30;;
3779;SDS011;1905;52.482;9.802;2022-09-04T12:43:11;4.77;;;4.13;;
3779;SDS011;1905;52.482;9.802;2022-09-04T12:45:52;5.70;;;4.17;;
3779;SDS011;1905;52.482;9.802;2022-09-04T12:48:33;4.20;;;3.60;;
3779;SDS011;1905;52.482;9.802;2022-09-04T12:51:09;6.23;;;5.00;;
3779;SDS011;1905;52.482;9.802;2022-09-04T12:53:52;3.90;;;3.60;;
3779;SDS011;1905;52.482;9.802;2022-09-04T12:56:37;3.63;;;3.33;;
3779;SDS011;1905;52.482;9.802;2022-09-04T12:59:21;4.30;;;3.87;;
3779;SDS011;1905;52.482;9.802;2022-09-04T13:02:04;5.90;;;3.90;;
3779;SDS011;1905;52.482;9.802;2022-09-04T13:04:43;4.20;;;3.90;;
3779;SDS011;1905;52.482;9.802;2022-09-04T13:07:28;4.30;;;3.90;;
3779;SDS011;1905;52.482;9.802;2022-09-04T13:10:11;5.23;;;3.70;;
3779;SDS011;1905;52.482;9.802;2022-09-04T13:12:51;7.30;;;5.20;;
3779;SDS011;1905;52.482;9.802;2022-09-04T13:15:31;4.80;;;4.40;;
3779;SDS011;1905;52.482;9.802;2022-09-04T13:18:09;4.57;;;4.10;;
3779;SDS011;1905;52.482;9.802;2022-09-04T13:20:46;4.53;;;4.10;;
3779;SDS011;1905;52.482;9.802;2022-09-04T13:23:28;10.63;;;4.10;;
3779;SDS011;1905;52.482;9.802;2022-09-04T13:26:16;3.17;;;2.97;;
3779;SDS011;1905;52.482;9.802;2022-09-04T13:28:57;11.50;;;4.50;;
3779;SDS011;1905;52.482;9.802;2022-09-04T13:31:55;3.33;;;3.03;;
3779;SDS011;1905;52.482;9.802;2022-09-04T13:34:33;4.53;;;3.43;;
3779;SDS011;1905;52.482;9.802;2022-09-04T13:37:14;3.50;;;3.23;;
3779;SDS011;1905;52.482;9.802;2022-09-04T13:40:00;3.30;;;3.00;;
3779;SDS011;1905;52.482;9.802;2022-09-04T13:45:42;5.10;;;4.23;;
3779;SDS011;1905;52.482;9.802;2022-09-04T13:48:14;4.00;;;3.60;;
3779;SDS011;1905;52.482;9.802;2022-09-04T13:50:49;5.07;;;3.63;;
3779;SDS011;1905;52.482;9.802;2022-09-04T13:53:21;6.73;;;4.30;;
3779;SDS011;1905;52.482;9.802;2022-09-04T13:55:55;5.23;;;4.73;;
3779;SDS011;1905;52.482;9.802;2022-09-04T13:58:26;6.70;;;3.60;;
3779;SDS011;1905;52.482;9.802;2022-09-04T14:00:59;5.30;;;4.10;;
3779;SDS011;1905;52.482;9.802;2022-09-04T14:03:29;4.10;;;3.70;;
3779;SDS011;1905;52.482;9.802;2022-09-04T14:06:02;4.97;;;3.97;;
3779;SDS011;1905;52.482;9.802;2022-09-04T14:08:34;5.10;;;3.40;;
3779;SDS011;1905;52.482;9.802;2022-09-04T14:11:10;3.87;;;3.50;;
3779;SDS011;1905;52.482;9.802;2022-09-04T14:13:55;3.93;;;3.63;;
3779;SDS011;1905;52.482;9.802;2022-09-04T14:16:38;4.17;;;3.77;;
3779;SDS011;1905;52.482;9.802;2022-09-04T14:19:14;5.83;;;4.17;;
3779;SDS011;1905;52.482;9.802;2022-09-04T14:22:06;5.00;;;3.50;;
3779;SDS011;1905;52.482;9.802;2022-09-04T14:24:42;4.13;;;3.60;;
3779;SDS011;1905;52.482;9.802;2022-09-04T14:27:20;4.47;;;4.03;;
3779;SDS011;1905;52.482;9.802;2022-09-04T14:29:56;7.67;;;4.60;;
3779;SDS011;1905;52.482;9.802;2022-09-04T14:32:34;4.07;;;3.67;;
3779;SDS011;1905;52.482;9.802;2022-09-04T14:35:15;4.10;;;3.80;;
3779;SDS011;1905;52.482;9.802;2022-09-04T14:37:54;6.13;;;4.07;;
3779;SDS011;1905;52.482;9.802;2022-09-04T14:40:31;5.93;;;3.90;;
3779;SDS011;1905;52.482;9.802;2022-09-04T14:43:03;5.80;;;4.20;;
3779;SDS011;1905;52.482;9.802;2022-09-04T14:45:48;5.20;;;4.40;;
3779;SDS011;1905;52.482;9.802;2022-09-04T14:48:25;4.23;;;3.90;;
3779;SDS011;1905;52.482;9.802;2022-09-04T14:50:54;3.90;;;3.50;;
3779;SDS011;1905;52.482;9.802;2022-09-04T14:53:25;3.67;;;3.37;;
3779;SDS011;1905;52.482;9.802;2022-09-04T14:58:56;6.60;;;3.60;;
3779;SDS011;1905;52.482;9.802;2022-09-04T15:01:29;5.80;;;4.43;;
3779;SDS011;1905;52.482;9.802;2022-09-04T15:03:59;7.63;;;4.10;;
3779;SDS011;1905;52.482;9.802;2022-09-04T15:06:32;8.20;;;4.00;;
3779;SDS011;1905;52.482;9.802;2022-09-04T15:09:29;4.00;;;3.60;;
3779;SDS011;1905;52.482;9.802;2022-09-04T15:12:11;4.20;;;3.53;;
3779;SDS011;1905;52.482;9.802;2022-09-04T15:14:53;4.30;;;3.90;;
3779;SDS011;1905;52.482;9.802;2022-09-04T15:17:30;10.63;;;4.10;;
3779;SDS011;1905;52.482;9.802;2022-09-04T15:20:04;3.60;;;3.30;;
3779;SDS011;1905;52.482;9.802;2022-09-04T15:22:44;7.80;;;3.80;;
3779;SDS011;1905;52.482;9.802;2022-09-04T15:25:28;8.00;;;3.80;;
3779;SDS011;1905;52.482;9.802;2022-09-04T15:28:24;3.80;;;3.47;;
3779;SDS011;1905;52.482;9.802;2022-09-04T15:31:06;4.40;;;3.77;;
3779;SDS011;1905;52.482;9.802;2022-09-04T15:33:41;4.30;;;3.90;;
3779;SDS011;1905;52.482;9.802;2022-09-04T15:36:13;3.87;;;3.40;;
3779;SDS011;1905;52.482;9.802;2022-09-04T15:38:47;4.23;;;3.37;;
3779;SDS011;1905;52.482;9.802;2022-09-04T15:41:20;3.67;;;3.33;;
3779;SDS011;1905;52.482;9.802;2022-09-04T15:43:53;5.50;;;3.30;;
3779;SDS011;1905;52.482;9.802;2022-09-04T15:46:32;4.50;;;3.30;;
3779;SDS011;1905;52.482;9.802;2022-09-04T15:49:13;3.33;;;3.03;;
3779;SDS011;1905;52.482;9.802;2022-09-04T15:51:48;4.97;;;3.50;;
3779;SDS011;1905;52.482;9.802;2022-09-04T15:54:23;4.10;;;3.70;;
3779;SDS011;1905;52.482;9.802;2022-09-04T15:56:57;4.17;;;3.70;;
3779;SDS011;1905;52.482;9.802;2022-09-04T15:59:34;3.43;;;3.13;;
3779;SDS011;1905;52.482;9.802;2022-09-04T16:02:17;3.70;;;2.83;;
3779;SDS011;1905;52.482;9.802;2022-09-04T16:04:52;4.07;;;2.70;;
3779;SDS011;1905;52.482;9.802;2022-09-04T16:07:32;5.10;;;3.63;;
3779;SDS011;1905;52.482;9.802;2022-09-04T16:10:10;3.80;;;3.00;;
3779;SDS011;1905;52.482;9.802;2022-09-04T16:12:47;3.50;;;3.17;;
3779;SDS011;1905;52.482;9.802;2022-09-04T16:15:18;4.33;;;3.53;;
3779;SDS011;1905;52.482;9.802;2022-09-04T16:17:53;4.43;;;3.20;;
3779;SDS011;1905;52.482;9.802;2022-09-04T16:20:25;3.87;;;3.57;;
3779;SDS011;1905;52.482;9.802;2022-09-04T16:23:00;4.97;;;3.40;;
3779;SDS011;1905;52.482;9.802;2022-09-04T16:25:33;3.93;;;3.57;;
3779;SDS011;1905;52.482;9.802;2022-09-04T16:28:05;5.27;;;3.70;;
3779;SDS011;1905;52.482;9.802;2022-09-04T16:30:37;3.47;;;3.17;;
3779;SDS011;1905;52.482;9.802;2022-09-04T16:33:18;3.73;;;3.43;;
3779;SDS011;1905;52.482;9.802;2022-09-04T16:35:54;4.43;;;3.40;;
3779;SDS011;1905;52.482;9.802;2022-09-04T16:38:28;3.70;;;3.40;;
3779;SDS011;1905;52.482;9.802;2022-09-04T16:41:07;3.90;;;2.97;;
3779;SDS011;1905;52.482;9.802;2022-09-04T16:43:39;3.50;;;3.20;;
3779;SDS011;1905;52.482;9.802;2022-09-04T16:46:53;4.50;;;3.13;;
3779;SDS011;1905;52.482;9.802;2022-09-04T16:49:32;3.70;;;3.40;;
3779;SDS011;1905;52.482;9.802;2022-09-04T16:52:18;3.47;;;2.87;;
3779;SDS011;1905;52.482;9.802;2022-09-04T16:55:00;6.00;;;2.80;;
3779;SDS011;1905;52.482;9.802;2022-09-04T16:57:36;4.17;;;3.77;;
3779;SDS011;1905;52.482;9.802;2022-09-04T17:00:08;3.37;;;3.03;;
3779;SDS011;1905;52.482;9.802;2022-09-04T17:02:41;3.83;;;3.23;;
3779;SDS011;1905;52.482;9.802;2022-09-04T17:05:17;3.80;;;3.07;;
3779;SDS011;1905;52.482;9.802;2022-09-04T17:07:54;3.80;;;2.97;;
3779;SDS011;1905;52.482;9.802;2022-09-04T17:10:32;4.13;;;3.27;;
3779;SDS011;1905;52.482;9.802;2022-09-04T17:13:07;3.43;;;2.90;;
3779;SDS011;1905;52.482;9.802;2022-09-04T17:15:47;6.90;;;3.60;;
3779;SDS011;1905;52.482;9.802;2022-09-04T17:18:24;3.20;;;3.00;;
3779;SDS011;1905;52.482;9.802;2022-09-04T17:20:58;4.53;;;3.17;;
3779;SDS011;1905;52.482;9.802;2022-09-04T17:23:52;4.20;;;3.33;;
3779;SDS011;1905;52.482;9.802;2022-09-04T17:26:48;4.07;;;3.67;;
3779;SDS011;1905;52.482;9.802;2022-09-04T17:29:40;3.77;;;3.37;;
3779;SDS011;1905;52.482;9.802;2022-09-04T17:32:15;4.37;;;3.67;;
3779;SDS011;1905;52.482;9.802;2022-09-04T17:35:10;3.50;;;3.20;;
3779;SDS011;1905;52.482;9.802;2022-09-04T17:38:08;3.17;;;2.90;;
3779;SDS011;1905;52.482;9.802;2022-09-04T17:41:08;3.83;;;3.50;;
3779;SDS011;1905;52.482;9.802;2022-09-04T17:44:09;4.37;;;3.67;;
3779;SDS011;1905;52.482;9.802;2022-09-04T17:46:52;4.30;;;3.70;;
3779;SDS011;1905;52.482;9.802;2022-09-04T17:49:30;4.33;;;3.93;;
3779;SDS011;1905;52.482;9.802;2022-09-04T17:52:01;3.63;;;3.33;;
3779;SDS011;1905;52.482;9.802;2022-09-04T17:54:38;3.70;;;3.40;;
3779;SDS011;1905;52.482;9.802;2022-09-04T17:57:17;4.88;;;4.15;;
3779;SDS011;1905;52.482;9.802;2022-09-04T17:59:52;5.73;;;3.87;;
3779;SDS011;1905;52.482;9.802;2022-09-04T18:02:27;4.63;;;3.93;;